FVSY weather

Siyalima Airport
Siyalima, Mashonaland Central Province, Zimbabwe

Public forecast

Using degrees Celsius for public forecast. Weather courtesy of forecast.io.

METAR (pilot weather report)

Closest report is Robert Gabriel Mugabe International Airport, 82.0 nm (151.9 km) SSE. Retrieved 2019/05/24 06:00 UTC (50 minutes ago):

FVRG 240600Z 12010KT CAVOK 15/08 Q1028 NOSIG

TAF (pilot weather forecast)

Forecast is more than 12 hours old.

Closest forecast is Robert Gabriel Mugabe International Airport, 82.0 nm (151.9 km) SSE. Retrieved 2019/05/22 18:00 UTC (2 days ago):

TAF FVRG 221600Z 2218/2324 09008KT CAVOK